Pagina principale
METAR-TAF:

METAR-TAF

Aeroporti :

Aeroporto di Pechino-Capitale

Pechino, Cina

latitudine: 39-56N, longitudine: 116-17E, altezza: 55 m

Osservazione

Il bollettino è stato emesso 40 minuti fa, alle 17:30 UTC
Vento 2 kt da direzioni variabili
Temperature -4°C
Umidità 68%
Pressione 1028 hPa
Visibilità 10 km o più
nessuna nube inferiore a 1500 m e nessun cumulonembo

METAR: ZBAA 211730Z VRB01MPS CAVOK M04/M09 Q1028 NOSIG

Ora: 02:10 (18:10 UTC)

Previsione

Il bollettino è stato emesso 2 ore e 40 minuti fa, alle 15:30 UTC
Previsione valida dal 21 alle 18 UTC al 22 alle 18 UTC
Vento 8 kt da sud
Visibilità 10 km o più
nessuna nube inferiore a 1500 m e nessun cumulonembo

TAF: ZBAA 211530Z 2118/2218 18004MPS CAVOK TX08/2207Z TNM04/21Z

Osservazioni e previsioni meteorologiche di più di 4000 aeroporti (messaggi METAR e TAF).

Le stazioni disponibili sono rappresentate dai dischi gialli e rossi sulla carta.

Puntare il mouse per vedere il nome della stazione.

Clicca sopra per visualizzare le osservazioni e previsioni meteorologiche.

Per cambiare la mappa : fare clic sui pulsanti verdi con una croce nera per ingrandire, il pulsante verde con un trattino per diminuire, o sulla freccia verde per le mappe adiacenti.


METAR-TAF: